sensor_id;sensor_type;location;lat;lon;timestamp;P1;durP1;ratioP1;P2;durP2;ratioP2
76439;SDS011;65274;44.982;20.060;2023-08-07T00:06:34;0.98;;;0.82;;
76439;SDS011;65274;44.982;20.060;2023-08-07T05:31:56;5.75;;;3.58;;
76439;SDS011;65274;44.982;20.060;2023-08-07T05:34:45;5.68;;;4.05;;
76439;SDS011;65274;44.982;20.060;2023-08-07T05:37:11;4.63;;;3.53;;
76439;SDS011;65274;44.982;20.060;2023-08-07T05:39:37;4.47;;;3.72;;
76439;SDS011;65274;44.982;20.060;2023-08-07T05:44:55;4.50;;;3.42;;
76439;SDS011;65274;44.982;20.060;2023-08-07T05:47:22;6.57;;;3.13;;
76439;SDS011;65274;44.982;20.060;2023-08-07T05:49:48;4.57;;;3.28;;
76439;SDS011;65274;44.982;20.060;2023-08-07T05:52:14;4.90;;;3.85;;
76439;SDS011;65274;44.982;20.060;2023-08-07T05:54:40;4.47;;;3.45;;
76439;SDS011;65274;44.982;20.060;2023-08-07T05:57:06;5.43;;;4.22;;
76439;SDS011;65274;44.982;20.060;2023-08-07T05:59:32;3.38;;;2.83;;
76439;SDS011;65274;44.982;20.060;2023-08-07T06:01:59;3.80;;;2.92;;
76439;SDS011;65274;44.982;20.060;2023-08-07T06:04:25;4.15;;;3.67;;
76439;SDS011;65274;44.982;20.060;2023-08-07T06:06:51;3.35;;;2.95;;
76439;SDS011;65274;44.982;20.060;2023-08-07T06:09:18;5.35;;;3.20;;
76439;SDS011;65274;44.982;20.060;2023-08-07T06:11:44;3.03;;;2.30;;
76439;SDS011;65274;44.982;20.060;2023-08-07T06:14:10;3.25;;;2.15;;
76439;SDS011;65274;44.982;20.060;2023-08-07T06:16:36;4.18;;;2.92;;
76439;SDS011;65274;44.982;20.060;2023-08-07T06:19:02;4.25;;;2.75;;
76439;SDS011;65274;44.982;20.060;2023-08-07T06:21:28;2.58;;;2.03;;
76439;SDS011;65274;44.982;20.060;2023-08-07T06:23:54;1.90;;;1.80;;
76439;SDS011;65274;44.982;20.060;2023-08-07T06:26:20;2.20;;;1.73;;
76439;SDS011;65274;44.982;20.060;2023-08-07T06:28:46;6.60;;;1.63;;
76439;SDS011;65274;44.982;20.060;2023-08-07T06:31:13;1.25;;;1.17;;
76439;SDS011;65274;44.982;20.060;2023-08-07T06:33:39;1.95;;;1.38;;
76439;SDS011;65274;44.982;20.060;2023-08-07T06:36:06;1.90;;;1.45;;
76439;SDS011;65274;44.982;20.060;2023-08-07T06:38:32;7.63;;;1.60;;
76439;SDS011;65274;44.982;20.060;2023-08-07T06:40:58;2.22;;;2.03;;
76439;SDS011;65274;44.982;20.060;2023-08-07T06:43:25;2.22;;;2.03;;
76439;SDS011;65274;44.982;20.060;2023-08-07T06:45:55;2.17;;;1.88;;
76439;SDS011;65274;44.982;20.060;2023-08-07T06:48:21;1.70;;;1.60;;
76439;SDS011;65274;44.982;20.060;2023-08-07T06:50:47;1.77;;;1.67;;
76439;SDS011;65274;44.982;20.060;2023-08-07T06:53:14;1.80;;;1.70;;
76439;SDS011;65274;44.982;20.060;2023-08-07T06:55:40;1.92;;;1.63;;
76439;SDS011;65274;44.982;20.060;2023-08-07T06:58:06;1.75;;;1.65;;
76439;SDS011;65274;44.982;20.060;2023-08-07T07:00:33;1.52;;;1.40;;
76439;SDS011;65274;44.982;20.060;2023-08-07T07:03:00;0.90;;;0.80;;
76439;SDS011;65274;44.982;20.060;2023-08-07T07:05:26;1.30;;;1.20;;
76439;SDS011;65274;44.982;20.060;2023-08-07T07:07:52;1.48;;;1.23;;
76439;SDS011;65274;44.982;20.060;2023-08-07T07:10:19;0.98;;;0.98;;
76439;SDS011;65274;44.982;20.060;2023-08-07T07:12:45;0.75;;;0.75;;
76439;SDS011;65274;44.982;20.060;2023-08-07T07:15:12;1.00;;;0.80;;
76439;SDS011;65274;44.982;20.060;2023-08-07T07:17:38;1.20;;;1.10;;
76439;SDS011;65274;44.982;20.060;2023-08-07T07:20:04;1.13;;;1.05;;
76439;SDS011;65274;44.982;20.060;2023-08-07T07:22:30;0.50;;;0.50;;
76439;SDS011;65274;44.982;20.060;2023-08-07T07:24:57;0.52;;;0.52;;
76439;SDS011;65274;44.982;20.060;2023-08-07T07:27:23;0.57;;;0.50;;
76439;SDS011;65274;44.982;20.060;2023-08-07T07:29:51;0.63;;;0.60;;
76439;SDS011;65274;44.982;20.060;2023-08-07T07:32:17;0.70;;;0.70;;
76439;SDS011;65274;44.982;20.060;2023-08-07T07:34:43;0.70;;;0.57;;
76439;SDS011;65274;44.982;20.060;2023-08-07T07:37:09;0.50;;;0.50;;
76439;SDS011;65274;44.982;20.060;2023-08-07T07:39:35;0.68;;;0.68;;
76439;SDS011;65274;44.982;20.060;2023-08-07T07:42:01;0.40;;;0.40;;
76439;SDS011;65274;44.982;20.060;2023-08-07T07:44:29;0.43;;;0.40;;
76439;SDS011;65274;44.982;20.060;2023-08-07T07:46:56;0.50;;;0.50;;
76439;SDS011;65274;44.982;20.060;2023-08-07T07:49:22;0.45;;;0.45;;
76439;SDS011;65274;44.982;20.060;2023-08-07T07:51:48;0.60;;;0.60;;
76439;SDS011;65274;44.982;20.060;2023-08-07T07:54:14;0.40;;;0.35;;
76439;SDS011;65274;44.982;20.060;2023-08-07T07:56:41;0.50;;;0.50;;
76439;SDS011;65274;44.982;20.060;2023-08-07T07:59:07;0.22;;;0.22;;
76439;SDS011;65274;44.982;20.060;2023-08-07T08:01:33;0.40;;;0.40;;
76439;SDS011;65274;44.982;20.060;2023-08-07T08:03:59;0.63;;;0.30;;
76439;SDS011;65274;44.982;20.060;2023-08-07T08:06:25;0.40;;;0.40;;
76439;SDS011;65274;44.982;20.060;2023-08-07T08:08:51;0.40;;;0.40;;
76439;SDS011;65274;44.982;20.060;2023-08-07T08:11:17;0.90;;;0.60;;
76439;SDS011;65274;44.982;20.060;2023-08-07T08:13:43;0.40;;;0.40;;
76439;SDS011;65274;44.982;20.060;2023-08-07T08:16:09;0.30;;;0.30;;
76439;SDS011;65274;44.982;20.060;2023-08-07T08:18:35;5.80;;;0.60;;
76439;SDS011;65274;44.982;20.060;2023-08-07T08:21:02;0.30;;;0.30;;
76439;SDS011;65274;44.982;20.060;2023-08-07T08:23:28;0.10;;;0.10;;
76439;SDS011;65274;44.982;20.060;2023-08-07T08:25:54;0.90;;;0.40;;
76439;SDS011;65274;44.982;20.060;2023-08-07T08:28:20;0.30;;;0.30;;
76439;SDS011;65274;44.982;20.060;2023-08-07T08:30:46;0.35;;;0.35;;
76439;SDS011;65274;44.982;20.060;2023-08-07T08:33:12;0.63;;;0.60;;
76439;SDS011;65274;44.982;20.060;2023-08-07T08:38:05;1.33;;;0.63;;
76439;SDS011;65274;44.982;20.060;2023-08-07T08:40:31;0.15;;;0.15;;
76439;SDS011;65274;44.982;20.060;2023-08-07T08:42:59;0.30;;;0.30;;
76439;SDS011;65274;44.982;20.060;2023-08-07T08:45:26;0.50;;;0.28;;
76439;SDS011;65274;44.982;20.060;2023-08-07T08:47:58;0.30;;;0.30;;
76439;SDS011;65274;44.982;20.060;2023-08-07T08:50:26;0.35;;;0.35;;
76439;SDS011;65274;44.982;20.060;2023-08-07T08:52:53;0.47;;;0.30;;
76439;SDS011;65274;44.982;20.060;2023-08-07T08:57:45;0.40;;;0.40;;
76439;SDS011;65274;44.982;20.060;2023-08-07T09:00:12;0.47;;;0.40;;
76439;SDS011;65274;44.982;20.060;2023-08-07T09:02:48;0.30;;;0.30;;
76439;SDS011;65274;44.982;20.060;2023-08-07T09:05:14;0.20;;;0.20;;
76439;SDS011;65274;44.982;20.060;2023-08-07T09:07:45;0.30;;;0.30;;
76439;SDS011;65274;44.982;20.060;2023-08-07T09:10:12;0.20;;;0.20;;
76439;SDS011;65274;44.982;20.060;2023-08-07T09:15:04;0.30;;;0.30;;
76439;SDS011;65274;44.982;20.060;2023-08-07T09:17:31;0.50;;;0.40;;
76439;SDS011;65274;44.982;20.060;2023-08-07T09:19:59;0.20;;;0.20;;
76439;SDS011;65274;44.982;20.060;2023-08-07T09:24:51;0.20;;;0.20;;
76439;SDS011;65274;44.982;20.060;2023-08-07T09:27:17;0.20;;;0.20;;
76439;SDS011;65274;44.982;20.060;2023-08-07T09:29:44;0.45;;;0.40;;
76439;SDS011;65274;44.982;20.060;2023-08-07T09:32:13;0.85;;;0.55;;
76439;SDS011;65274;44.982;20.060;2023-08-07T09:34:40;0.38;;;0.38;;
76439;SDS011;65274;44.982;20.060;2023-08-07T09:37:07;0.30;;;0.30;;
76439;SDS011;65274;44.982;20.060;2023-08-07T09:39:33;0.45;;;0.45;;
76439;SDS011;65274;44.982;20.060;2023-08-07T09:42:00;0.45;;;0.45;;
76439;SDS011;65274;44.982;20.060;2023-08-07T09:44:34;0.32;;;0.30;;
76439;SDS011;65274;44.982;20.060;2023-08-07T09:47:00;0.40;;;0.40;;
76439;SDS011;65274;44.982;20.060;2023-08-07T09:49:36;0.32;;;0.32;;
76439;SDS011;65274;44.982;20.060;2023-08-07T09:52:04;0.50;;;0.20;;
76439;SDS011;65274;44.982;20.060;2023-08-07T09:54:32;0.20;;;0.20;;
76439;SDS011;65274;44.982;20.060;2023-08-07T09:56:59;2.42;;;0.57;;
76439;SDS011;65274;44.982;20.060;2023-08-07T09:59:26;0.47;;;0.20;;
76439;SDS011;65274;44.982;20.060;2023-08-07T10:01:52;0.30;;;0.30;;
76439;SDS011;65274;44.982;20.060;2023-08-07T10:04:19;0.28;;;0.28;;
76439;SDS011;65274;44.982;20.060;2023-08-07T10:06:45;0.30;;;0.30;;
76439;SDS011;65274;44.982;20.060;2023-08-07T10:09:12;0.20;;;0.20;;
76439;SDS011;65274;44.982;20.060;2023-08-07T10:11:38;0.40;;;0.40;;
76439;SDS011;65274;44.982;20.060;2023-08-07T10:14:05;0.30;;;0.30;;
76439;SDS011;65274;44.982;20.060;2023-08-07T10:16:32;0.40;;;0.40;;
76439;SDS011;65274;44.982;20.060;2023-08-07T10:18:58;0.30;;;0.30;;
76439;SDS011;65274;44.982;20.060;2023-08-07T10:21:24;0.57;;;0.57;;
76439;SDS011;65274;44.982;20.060;2023-08-07T10:23:53;2.30;;;0.43;;
76439;SDS011;65274;44.982;20.060;2023-08-07T10:26:20;0.20;;;0.20;;
76439;SDS011;65274;44.982;20.060;2023-08-07T10:28:48;0.45;;;0.40;;
76439;SDS011;65274;44.982;20.060;2023-08-07T10:31:16;0.60;;;0.40;;
76439;SDS011;65274;44.982;20.060;2023-08-07T10:33:43;0.60;;;0.60;;
76439;SDS011;65274;44.982;20.060;2023-08-07T10:36:09;0.30;;;0.30;;
76439;SDS011;65274;44.982;20.060;2023-08-07T10:38:35;0.40;;;0.40;;
76439;SDS011;65274;44.982;20.060;2023-08-07T10:41:05;0.30;;;0.30;;
76439;SDS011;65274;44.982;20.060;2023-08-07T10:43:36;0.20;;;0.20;;
76439;SDS011;65274;44.982;20.060;2023-08-07T10:46:02;0.30;;;0.30;;
76439;SDS011;65274;44.982;20.060;2023-08-07T10:48:29;0.50;;;0.50;;
76439;SDS011;65274;44.982;20.060;2023-08-07T10:51:02;0.30;;;0.30;;
76439;SDS011;65274;44.982;20.060;2023-08-07T10:53:35;0.35;;;0.30;;
76439;SDS011;65274;44.982;20.060;2023-08-07T10:56:03;0.20;;;0.20;;
76439;SDS011;65274;44.982;20.060;2023-08-07T10:58:30;0.38;;;0.38;;
76439;SDS011;65274;44.982;20.060;2023-08-07T11:03:42;0.70;;;0.70;;
76439;SDS011;65274;44.982;20.060;2023-08-07T11:06:09;0.52;;;0.52;;
76439;SDS011;65274;44.982;20.060;2023-08-07T11:08:35;0.43;;;0.43;;
76439;SDS011;65274;44.982;20.060;2023-08-07T11:11:05;1.35;;;0.30;;
76439;SDS011;65274;44.982;20.060;2023-08-07T11:13:32;0.93;;;0.60;;
76439;SDS011;65274;44.982;20.060;2023-08-07T11:15:59;0.80;;;0.32;;
76439;SDS011;65274;44.982;20.060;2023-08-07T11:18:25;0.20;;;0.20;;
76439;SDS011;65274;44.982;20.060;2023-08-07T11:20:52;0.38;;;0.38;;
76439;SDS011;65274;44.982;20.060;2023-08-07T11:23:24;1.00;;;0.38;;
76439;SDS011;65274;44.982;20.060;2023-08-07T11:25:54;0.40;;;0.30;;
76439;SDS011;65274;44.982;20.060;2023-08-07T11:28:20;0.15;;;0.15;;
76439;SDS011;65274;44.982;20.060;2023-08-07T11:30:50;0.63;;;0.63;;
76439;SDS011;65274;44.982;20.060;2023-08-07T11:33:19;0.47;;;0.43;;
76439;SDS011;65274;44.982;20.060;2023-08-07T11:35:46;0.40;;;0.40;;
76439;SDS011;65274;44.982;20.060;2023-08-07T11:38:15;0.60;;;0.60;;
76439;SDS011;65274;44.982;20.060;2023-08-07T11:40:41;2.22;;;0.40;;
76439;SDS011;65274;44.982;20.060;2023-08-07T11:43:07;0.52;;;0.52;;
76439;SDS011;65274;44.982;20.060;2023-08-07T11:45:34;0.30;;;0.30;;
76439;SDS011;65274;44.982;20.060;2023-08-07T11:48:00;0.55;;;0.40;;
76439;SDS011;65274;44.982;20.060;2023-08-07T11:50:27;0.30;;;0.30;;
76439;SDS011;65274;44.982;20.060;2023-08-07T11:55:25;0.63;;;0.57;;
76439;SDS011;65274;44.982;20.060;2023-08-07T12:00:17;0.40;;;0.40;;
76439;SDS011;65274;44.982;20.060;2023-08-07T12:02:45;0.35;;;0.35;;
76439;SDS011;65274;44.982;20.060;2023-08-07T12:05:11;0.82;;;0.75;;
76439;SDS011;65274;44.982;20.060;2023-08-07T12:07:38;0.52;;;0.38;;
76439;SDS011;65274;44.982;20.060;2023-08-07T12:10:07;0.30;;;0.30;;
76439;SDS011;65274;44.982;20.060;2023-08-07T12:12:37;0.30;;;0.30;;
76439;SDS011;65274;44.982;20.060;2023-08-07T12:15:06;0.63;;;0.40;;
76439;SDS011;65274;44.982;20.060;2023-08-07T12:17:33;0.40;;;0.30;;
76439;SDS011;65274;44.982;20.060;2023-08-07T12:19:59;0.50;;;0.50;;
76439;SDS011;65274;44.982;20.060;2023-08-07T12:22:27;0.20;;;0.20;;
76439;SDS011;65274;44.982;20.060;2023-08-07T12:24:55;0.47;;;0.47;;
76439;SDS011;65274;44.982;20.060;2023-08-07T12:27:22;0.38;;;0.38;;
76439;SDS011;65274;44.982;20.060;2023-08-07T12:29:48;0.20;;;0.20;;
76439;SDS011;65274;44.982;20.060;2023-08-07T12:32:14;0.28;;;0.28;;
76439;SDS011;65274;44.982;20.060;2023-08-07T12:34:40;0.28;;;0.28;;
76439;SDS011;65274;44.982;20.060;2023-08-07T12:37:06;0.60;;;0.60;;
76439;SDS011;65274;44.982;20.060;2023-08-07T12:39:32;0.60;;;0.57;;
76439;SDS011;65274;44.982;20.060;2023-08-07T12:41:58;1.27;;;0.67;;
76439;SDS011;65274;44.982;20.060;2023-08-07T12:44:24;0.65;;;0.63;;
76439;SDS011;65274;44.982;20.060;2023-08-07T12:46:50;1.67;;;0.60;;
76439;SDS011;65274;44.982;20.060;2023-08-07T12:49:17;0.32;;;0.32;;
76439;SDS011;65274;44.982;20.060;2023-08-07T12:51:44;0.40;;;0.40;;
76439;SDS011;65274;44.982;20.060;2023-08-07T12:54:10;0.50;;;0.50;;
76439;SDS011;65274;44.982;20.060;2023-08-07T12:56:36;0.47;;;0.47;;
76439;SDS011;65274;44.982;20.060;2023-08-07T12:59:02;0.30;;;0.30;;
76439;SDS011;65274;44.982;20.060;2023-08-07T13:01:28;0.43;;;0.43;;
76439;SDS011;65274;44.982;20.060;2023-08-07T13:03:54;2.35;;;0.85;;
76439;SDS011;65274;44.982;20.060;2023-08-07T13:06:20;0.45;;;0.40;;
76439;SDS011;65274;44.982;20.060;2023-08-07T13:08:46;0.47;;;0.47;;
76439;SDS011;65274;44.982;20.060;2023-08-07T13:11:12;1.05;;;0.70;;
76439;SDS011;65274;44.982;20.060;2023-08-07T13:13:40;0.70;;;0.70;;
76439;SDS011;65274;44.982;20.060;2023-08-07T13:16:06;0.52;;;0.52;;
76439;SDS011;65274;44.982;20.060;2023-08-07T13:18:32;0.57;;;0.57;;
76439;SDS011;65274;44.982;20.060;2023-08-07T13:20:58;0.70;;;0.70;;
76439;SDS011;65274;44.982;20.060;2023-08-07T13:23:24;0.60;;;0.60;;
76439;SDS011;65274;44.982;20.060;2023-08-07T13:25:50;0.95;;;0.95;;
76439;SDS011;65274;44.982;20.060;2023-08-07T13:28:16;0.75;;;0.73;;
76439;SDS011;65274;44.982;20.060;2023-08-07T13:30:43;0.40;;;0.40;;
76439;SDS011;65274;44.982;20.060;2023-08-07T13:33:09;0.80;;;0.63;;
76439;SDS011;65274;44.982;20.060;2023-08-07T13:35:35;0.90;;;0.90;;
76439;SDS011;65274;44.982;20.060;2023-08-07T13:38:02;1.30;;;1.20;;
76439;SDS011;65274;44.982;20.060;2023-08-07T13:40:30;1.20;;;1.00;;
76439;SDS011;65274;44.982;20.060;2023-08-07T13:42:57;0.63;;;0.63;;
76439;SDS011;65274;44.982;20.060;2023-08-07T13:45:24;1.85;;;0.77;;
76439;SDS011;65274;44.982;20.060;2023-08-07T13:47:50;0.65;;;0.65;;
76439;SDS011;65274;44.982;20.060;2023-08-07T13:50:16;0.60;;;0.60;;
76439;SDS011;65274;44.982;20.060;2023-08-07T13:52:42;0.85;;;0.82;;
76439;SDS011;65274;44.982;20.060;2023-08-07T13:55:08;0.77;;;0.77;;
76439;SDS011;65274;44.982;20.060;2023-08-07T13:57:34;0.40;;;0.40;;
76439;SDS011;65274;44.982;20.060;2023-08-07T14:00:00;0.70;;;0.70;;
76439;SDS011;65274;44.982;20.060;2023-08-07T14:02:27;0.30;;;0.30;;
76439;SDS011;65274;44.982;20.060;2023-08-07T14:04:53;0.30;;;0.30;;
76439;SDS011;65274;44.982;20.060;2023-08-07T14:07:19;0.40;;;0.40;;
76439;SDS011;65274;44.982;20.060;2023-08-07T14:09:45;0.40;;;0.40;;
76439;SDS011;65274;44.982;20.060;2023-08-07T14:12:11;0.40;;;0.40;;
76439;SDS011;65274;44.982;20.060;2023-08-07T14:14:37;0.40;;;0.40;;
76439;SDS011;65274;44.982;20.060;2023-08-07T14:17:03;0.40;;;0.40;;
76439;SDS011;65274;44.982;20.060;2023-08-07T14:19:29;0.50;;;0.50;;
76439;SDS011;65274;44.982;20.060;2023-08-07T14:21:56;0.22;;;0.22;;
76439;SDS011;65274;44.982;20.060;2023-08-07T14:24:22;0.20;;;0.20;;
76439;SDS011;65274;44.982;20.060;2023-08-07T14:26:48;0.40;;;0.30;;
76439;SDS011;65274;44.982;20.060;2023-08-07T14:29:14;0.22;;;0.20;;
76439;SDS011;65274;44.982;20.060;2023-08-07T14:31:40;0.30;;;0.30;;
76439;SDS011;65274;44.982;20.060;2023-08-07T14:34:06;0.20;;;0.20;;
76439;SDS011;65274;44.982;20.060;2023-08-07T14:36:32;0.55;;;0.50;;
76439;SDS011;65274;44.982;20.060;2023-08-07T14:38:58;1.13;;;0.70;;
76439;SDS011;65274;44.982;20.060;2023-08-07T14:41:24;0.65;;;0.65;;
76439;SDS011;65274;44.982;20.060;2023-08-07T14:43:50;0.40;;;0.40;;
76439;SDS011;65274;44.982;20.060;2023-08-07T14:46:16;0.40;;;0.40;;
76439;SDS011;65274;44.982;20.060;2023-08-07T14:48:46;0.30;;;0.30;;
76439;SDS011;65274;44.982;20.060;2023-08-07T14:51:13;0.30;;;0.30;;
76439;SDS011;65274;44.982;20.060;2023-08-07T14:53:39;0.15;;;0.15;;
76439;SDS011;65274;44.982;20.060;2023-08-07T14:56:05;0.08;;;0.08;;
76439;SDS011;65274;44.982;20.060;2023-08-07T14:58:33;0.10;;;0.10;;
76439;SDS011;65274;44.982;20.060;2023-08-07T15:00:59;0.28;;;0.20;;
76439;SDS011;65274;44.982;20.060;2023-08-07T15:03:26;0.13;;;0.10;;
76439;SDS011;65274;44.982;20.060;2023-08-07T15:05:53;0.10;;;0.10;;
76439;SDS011;65274;44.982;20.060;2023-08-07T15:08:19;0.10;;;0.10;;
76439;SDS011;65274;44.982;20.060;2023-08-07T15:10:45;0.20;;;0.20;;
76439;SDS011;65274;44.982;20.060;2023-08-07T15:13:11;0.10;;;0.10;;
76439;SDS011;65274;44.982;20.060;2023-08-07T15:15:37;0.17;;;0.17;;
76439;SDS011;65274;44.982;20.060;2023-08-07T15:18:03;0.20;;;0.20;;
76439;SDS011;65274;44.982;20.060;2023-08-07T15:20:30;0.25;;;0.25;;
76439;SDS011;65274;44.982;20.060;2023-08-07T15:22:56;0.30;;;0.30;;
76439;SDS011;65274;44.982;20.060;2023-08-07T15:25:22;0.10;;;0.10;;
76439;SDS011;65274;44.982;20.060;2023-08-07T15:27:48;0.10;;;0.10;;
76439;SDS011;65274;44.982;20.060;2023-08-07T15:30:14;0.30;;;0.10;;
76439;SDS011;65274;44.982;20.060;2023-08-07T15:32:40;0.17;;;0.17;;
76439;SDS011;65274;44.982;20.060;2023-08-07T15:35:07;0.45;;;0.20;;
76439;SDS011;65274;44.982;20.060;2023-08-07T15:37:33;0.20;;;0.20;;
76439;SDS011;65274;44.982;20.060;2023-08-07T15:39:59;0.10;;;0.10;;
76439;SDS011;65274;44.982;20.060;2023-08-07T15:42:25;0.30;;;0.30;;
76439;SDS011;65274;44.982;20.060;2023-08-07T15:44:51;0.10;;;0.10;;
76439;SDS011;65274;44.982;20.060;2023-08-07T15:47:18;1.83;;;0.50;;
76439;SDS011;65274;44.982;20.060;2023-08-07T15:49:44;0.50;;;0.30;;
76439;SDS011;65274;44.982;20.060;2023-08-07T15:52:13;0.30;;;0.30;;
76439;SDS011;65274;44.982;20.060;2023-08-07T15:54:39;0.32;;;0.20;;
76439;SDS011;65274;44.982;20.060;2023-08-07T15:57:08;0.65;;;0.30;;
76439;SDS011;65274;44.982;20.060;2023-08-07T15:59:34;0.50;;;0.50;;
76439;SDS011;65274;44.982;20.060;2023-08-07T16:02:00;0.20;;;0.20;;
76439;SDS011;65274;44.982;20.060;2023-08-07T16:04:26;1.45;;;0.30;;
76439;SDS011;65274;44.982;20.060;2023-08-07T16:06:52;0.20;;;0.20;;
76439;SDS011;65274;44.982;20.060;2023-08-07T16:09:18;0.70;;;0.15;;
76439;SDS011;65274;44.982;20.060;2023-08-07T16:11:44;0.10;;;0.10;;
76439;SDS011;65274;44.982;20.060;2023-08-07T16:14:10;0.10;;;0.10;;
76439;SDS011;65274;44.982;20.060;2023-08-07T16:16:36;1.48;;;0.28;;
76439;SDS011;65274;44.982;20.060;2023-08-07T16:19:03;0.57;;;0.55;;
76439;SDS011;65274;44.982;20.060;2023-08-07T16:21:29;0.38;;;0.17;;
76439;SDS011;65274;44.982;20.060;2023-08-07T16:23:55;0.20;;;0.20;;
76439;SDS011;65274;44.982;20.060;2023-08-07T16:26:21;0.10;;;0.10;;
76439;SDS011;65274;44.982;20.060;2023-08-07T16:28:47;0.55;;;0.35;;
76439;SDS011;65274;44.982;20.060;2023-08-07T16:31:13;0.38;;;0.38;;
76439;SDS011;65274;44.982;20.060;2023-08-07T16:33:39;0.38;;;0.20;;
76439;SDS011;65274;44.982;20.060;2023-08-07T16:36:05;0.20;;;0.20;;
76439;SDS011;65274;44.982;20.060;2023-08-07T16:38:31;0.30;;;0.00;;
76439;SDS011;65274;44.982;20.060;2023-08-07T16:40:58;0.32;;;0.20;;
76439;SDS011;65274;44.982;20.060;2023-08-07T16:43:24;0.20;;;0.20;;
76439;SDS011;65274;44.982;20.060;2023-08-07T16:45:50;0.10;;;0.10;;
76439;SDS011;65274;44.982;20.060;2023-08-07T16:48:16;0.20;;;0.20;;
76439;SDS011;65274;44.982;20.060;2023-08-07T16:50:42;0.10;;;0.10;;
76439;SDS011;65274;44.982;20.060;2023-08-07T16:53:08;0.10;;;0.10;;
76439;SDS011;65274;44.982;20.060;2023-08-07T16:55:34;0.10;;;0.10;;
76439;SDS011;65274;44.982;20.060;2023-08-07T16:58:00;0.10;;;0.10;;
76439;SDS011;65274;44.982;20.060;2023-08-07T17:00:26;0.60;;;0.10;;
76439;SDS011;65274;44.982;20.060;2023-08-07T17:02:52;0.10;;;0.10;;
76439;SDS011;65274;44.982;20.060;2023-08-07T17:05:21;1.10;;;0.15;;
76439;SDS011;65274;44.982;20.060;2023-08-07T17:07:47;0.40;;;0.13;;
76439;SDS011;65274;44.982;20.060;2023-08-07T17:10:13;0.22;;;0.22;;
76439;SDS011;65274;44.982;20.060;2023-08-07T17:12:41;0.30;;;0.22;;
76439;SDS011;65274;44.982;20.060;2023-08-07T17:15:08;0.10;;;0.10;;
76439;SDS011;65274;44.982;20.060;2023-08-07T17:17:34;0.32;;;0.20;;
76439;SDS011;65274;44.982;20.060;2023-08-07T17:20:01;0.20;;;0.20;;
76439;SDS011;65274;44.982;20.060;2023-08-07T17:22:28;0.10;;;0.10;;
76439;SDS011;65274;44.982;20.060;2023-08-07T17:24:54;0.10;;;0.10;;
76439;SDS011;65274;44.982;20.060;2023-08-07T17:27:20;0.30;;;0.30;;
76439;SDS011;65274;44.982;20.060;2023-08-07T17:29:46;15.07;;;0.57;;
76439;SDS011;65274;44.982;20.060;2023-08-07T17:32:12;0.20;;;0.20;;
76439;SDS011;65274;44.982;20.060;2023-08-07T17:34:39;0.10;;;0.10;;
76439;SDS011;65274;44.982;20.060;2023-08-07T17:37:05;0.17;;;0.17;;
76439;SDS011;65274;44.982;20.060;2023-08-07T17:39:31;0.20;;;0.20;;
76439;SDS011;65274;44.982;20.060;2023-08-07T17:41:57;0.10;;;0.10;;
76439;SDS011;65274;44.982;20.060;2023-08-07T17:44:23;0.20;;;0.20;;
76439;SDS011;65274;44.982;20.060;2023-08-07T17:46:49;0.20;;;0.20;;
76439;SDS011;65274;44.982;20.060;2023-08-07T17:49:15;0.10;;;0.10;;
76439;SDS011;65274;44.982;20.060;2023-08-07T17:51:41;0.10;;;0.10;;
76439;SDS011;65274;44.982;20.060;2023-08-07T17:54:07;0.20;;;0.20;;
76439;SDS011;65274;44.982;20.060;2023-08-07T17:56:33;0.65;;;0.30;;
76439;SDS011;65274;44.982;20.060;2023-08-07T17:59:01;0.00;;;0.00;;
76439;SDS011;65274;44.982;20.060;2023-08-07T18:01:27;0.28;;;0.10;;
76439;SDS011;65274;44.982;20.060;2023-08-07T18:03:56;1.17;;;0.10;;
76439;SDS011;65274;44.982;20.060;2023-08-07T18:06:26;0.20;;;0.20;;
76439;SDS011;65274;44.982;20.060;2023-08-07T18:08:52;0.43;;;0.10;;
76439;SDS011;65274;44.982;20.060;2023-08-07T18:11:18;0.22;;;0.22;;
76439;SDS011;65274;44.982;20.060;2023-08-07T18:13:44;0.10;;;0.10;;
76439;SDS011;65274;44.982;20.060;2023-08-07T18:16:10;0.10;;;0.10;;
76439;SDS011;65274;44.982;20.060;2023-08-07T18:18:36;0.38;;;0.32;;
76439;SDS011;65274;44.982;20.060;2023-08-07T18:21:02;0.17;;;0.17;;
76439;SDS011;65274;44.982;20.060;2023-08-07T18:23:28;0.20;;;0.20;;
76439;SDS011;65274;44.982;20.060;2023-08-07T18:25:56;0.10;;;0.10;;
76439;SDS011;65274;44.982;20.060;2023-08-07T18:28:22;0.32;;;0.20;;
76439;SDS011;65274;44.982;20.060;2023-08-07T18:30:48;0.30;;;0.30;;
76439;SDS011;65274;44.982;20.060;2023-08-07T18:33:14;0.13;;;0.13;;
76439;SDS011;65274;44.982;20.060;2023-08-07T18:35:40;0.17;;;0.17;;
76439;SDS011;65274;44.982;20.060;2023-08-07T18:38:06;0.50;;;0.20;;
76439;SDS011;65274;44.982;20.060;2023-08-07T18:40:33;0.20;;;0.10;;
76439;SDS011;65274;44.982;20.060;2023-08-07T18:42:59;0.10;;;0.10;;
76439;SDS011;65274;44.982;20.060;2023-08-07T18:45:26;0.20;;;0.20;;
76439;SDS011;65274;44.982;20.060;2023-08-07T18:47:52;0.10;;;0.10;;
76439;SDS011;65274;44.982;20.060;2023-08-07T18:50:18;0.28;;;0.28;;
76439;SDS011;65274;44.982;20.060;2023-08-07T18:52:44;0.28;;;0.13;;
76439;SDS011;65274;44.982;20.060;2023-08-07T18:55:10;0.45;;;0.20;;
76439;SDS011;65274;44.982;20.060;2023-08-07T18:57:36;0.10;;;0.10;;
76439;SDS011;65274;44.982;20.060;2023-08-07T19:00:02;0.55;;;0.30;;
76439;SDS011;65274;44.982;20.060;2023-08-07T19:02:30;0.30;;;0.30;;
76439;SDS011;65274;44.982;20.060;2023-08-07T19:04:57;0.45;;;0.38;;
76439;SDS011;65274;44.982;20.060;2023-08-07T19:07:23;0.35;;;0.22;;
76439;SDS011;65274;44.982;20.060;2023-08-07T19:09:49;0.13;;;0.13;;
76439;SDS011;65274;44.982;20.060;2023-08-07T19:12:15;0.20;;;0.20;;
76439;SDS011;65274;44.982;20.060;2023-08-07T19:14:41;2.92;;;0.65;;
76439;SDS011;65274;44.982;20.060;2023-08-07T19:17:07;3.28;;;0.50;;
76439;SDS011;65274;44.982;20.060;2023-08-07T19:19:33;0.13;;;0.13;;
76439;SDS011;65274;44.982;20.060;2023-08-07T19:21:59;0.13;;;0.13;;
76439;SDS011;65274;44.982;20.060;2023-08-07T19:24:25;0.30;;;0.20;;
76439;SDS011;65274;44.982;20.060;2023-08-07T19:26:51;0.43;;;0.43;;
76439;SDS011;65274;44.982;20.060;2023-08-07T19:29:17;0.35;;;0.30;;
76439;SDS011;65274;44.982;20.060;2023-08-07T19:31:43;1.45;;;0.10;;
76439;SDS011;65274;44.982;20.060;2023-08-07T19:34:09;0.28;;;0.20;;
76439;SDS011;65274;44.982;20.060;2023-08-07T19:36:38;0.22;;;0.22;;
76439;SDS011;65274;44.982;20.060;2023-08-07T19:39:04;0.50;;;0.50;;
76439;SDS011;65274;44.982;20.060;2023-08-07T19:41:30;0.38;;;0.22;;
76439;SDS011;65274;44.982;20.060;2023-08-07T19:46:25;0.10;;;0.10;;
76439;SDS011;65274;44.982;20.060;2023-08-07T19:48:51;0.10;;;0.10;;
76439;SDS011;65274;44.982;20.060;2023-08-07T19:51:17;0.22;;;0.22;;
76439;SDS011;65274;44.982;20.060;2023-08-07T19:53:44;0.30;;;0.30;;
76439;SDS011;65274;44.982;20.060;2023-08-07T19:56:10;0.40;;;0.40;;
76439;SDS011;65274;44.982;20.060;2023-08-07T19:58:36;0.10;;;0.10;;
76439;SDS011;65274;44.982;20.060;2023-08-07T20:01:02;0.20;;;0.20;;
76439;SDS011;65274;44.982;20.060;2023-08-07T20:03:28;0.17;;;0.17;;
76439;SDS011;65274;44.982;20.060;2023-08-07T20:05:54;0.65;;;0.15;;
76439;SDS011;65274;44.982;20.060;2023-08-07T20:08:22;0.17;;;0.17;;
76439;SDS011;65274;44.982;20.060;2023-08-07T20:10:48;0.50;;;0.20;;
76439;SDS011;65274;44.982;20.060;2023-08-07T20:13:14;0.10;;;0.10;;
76439;SDS011;65274;44.982;20.060;2023-08-07T20:15:40;0.38;;;0.22;;
76439;SDS011;65274;44.982;20.060;2023-08-07T20:18:06;0.20;;;0.20;;
76439;SDS011;65274;44.982;20.060;2023-08-07T20:20:32;0.20;;;0.20;;